sensor_id;sensor_type;location;lat;lon;timestamp;pressure;altitude;pressure_sealevel;temperature;humidity
7058;BME280;3570;43.080;25.628;2022-08-01T00:01:46;-20061.25;;;20.93;81.59
7058;BME280;3570;43.080;25.628;2022-08-01T00:04:30;-20054.59;;;20.70;82.50
7058;BME280;3570;43.080;25.628;2022-08-01T00:07:14;-20049.50;;;20.52;84.18
7058;BME280;3570;43.080;25.628;2022-08-01T00:09:58;-20040.97;;;20.23;85.39
7058;BME280;3570;43.080;25.628;2022-08-01T00:12:44;-20044.00;;;20.33;85.80
7058;BME280;3570;43.080;25.628;2022-08-01T00:15:28;-20048.06;;;20.47;91.10
7058;BME280;3570;43.080;25.628;2022-08-01T00:18:12;-20049.94;;;20.54;85.57
7058;BME280;3570;43.080;25.628;2022-08-01T00:20:56;-20046.75;;;20.43;84.90
7058;BME280;3570;43.080;25.628;2022-08-01T00:23:40;-20048.78;;;20.50;86.80
7058;BME280;3570;43.080;25.628;2022-08-01T00:26:24;-20053.84;;;20.68;86.15
7058;BME280;3570;43.080;25.628;2022-08-01T00:29:08;-20055.75;;;20.74;85.92
7058;BME280;3570;43.080;25.628;2022-08-01T00:31:52;-20044.31;;;20.34;85.18
7058;BME280;3570;43.080;25.628;2022-08-01T00:34:36;-20057.03;;;20.79;88.13
7058;BME280;3570;43.080;25.628;2022-08-01T00:37:20;-20057.19;;;20.79;85.41
7058;BME280;3570;43.080;25.628;2022-08-01T00:40:04;-20056.63;;;20.77;85.09
7058;BME280;3570;43.080;25.628;2022-08-01T00:42:49;-20050.53;;;20.56;85.36
7058;BME280;3570;43.080;25.628;2022-08-01T00:45:33;-20047.63;;;20.46;86.48
7058;BME280;3570;43.080;25.628;2022-08-01T00:48:17;-20048.66;;;20.49;86.29
7058;BME280;3570;43.080;25.628;2022-08-01T00:51:03;-20056.31;;;20.76;85.65
7058;BME280;3570;43.080;25.628;2022-08-01T00:53:47;-20053.13;;;20.65;85.36
7058;BME280;3570;43.080;25.628;2022-08-01T00:56:33;-20056.63;;;20.77;85.30
7058;BME280;3570;43.080;25.628;2022-08-01T00:59:17;-20054.88;;;20.71;85.29
7058;BME280;3570;43.080;25.628;2022-08-01T01:02:01;-20047.91;;;20.47;86.36
7058;BME280;3570;43.080;25.628;2022-08-01T01:04:45;-20043.72;;;20.32;86.72
7058;BME280;3570;43.080;25.628;2022-08-01T01:07:50;-20044.44;;;20.35;86.68
7058;BME280;3570;43.080;25.628;2022-08-01T01:11:01;-20058.94;;;20.85;86.22
7058;BME280;3570;43.080;25.628;2022-08-01T01:13:53;-20064.44;;;21.04;84.01
7058;BME280;3570;43.080;25.628;2022-08-01T01:16:40;-20085.28;;;21.77;84.15
7058;BME280;3570;43.080;25.628;2022-08-01T01:19:30;-20101.06;;;22.31;82.00
7058;BME280;3570;43.080;25.628;2022-08-01T01:25:19;-20124.63;;;23.13;77.32
7058;BME280;3570;43.080;25.628;2022-08-01T01:29:11;-20133.47;;;23.44;75.09
7058;BME280;3570;43.080;25.628;2022-08-01T01:31:40;-20134.19;;;23.47;74.11
7058;BME280;3570;43.080;25.628;2022-08-01T01:34:27;-20134.75;;;23.49;73.54
7058;BME280;3570;43.080;25.628;2022-08-01T01:37:15;-20135.91;;;23.53;75.24
7058;BME280;3570;43.080;25.628;2022-08-01T01:40:02;-20134.75;;;23.49;73.48
7058;BME280;3570;43.080;25.628;2022-08-01T01:42:48;-20127.25;;;23.22;75.38
7058;BME280;3570;43.080;25.628;2022-08-01T01:45:35;-20121.47;;;23.02;74.77
7058;BME280;3570;43.080;25.628;2022-08-01T01:48:21;-20126.94;;;23.21;75.30
7058;BME280;3570;43.080;25.628;2022-08-01T01:51:07;-20127.81;;;23.24;75.61
7058;BME280;3570;43.080;25.628;2022-08-01T01:53:53;-20116.25;;;22.84;73.40
7058;BME280;3570;43.080;25.628;2022-08-01T01:56:39;-20117.13;;;22.87;76.75
7058;BME280;3570;43.080;25.628;2022-08-01T01:59:35;-20119.28;;;22.95;76.29
7058;BME280;3570;43.080;25.628;2022-08-01T02:02:22;-20091.94;;;22.00;75.96
7058;BME280;3570;43.080;25.628;2022-08-01T02:05:09;-20100.91;;;22.31;78.58
7058;BME280;3570;43.080;25.628;2022-08-01T02:07:54;-20099.19;;;22.25;75.97
7058;BME280;3570;43.080;25.628;2022-08-01T02:10:40;-20109.47;;;22.61;79.06
7058;BME280;3570;43.080;25.628;2022-08-01T02:13:24;-20112.19;;;22.70;77.52
7058;BME280;3570;43.080;25.628;2022-08-01T02:16:09;-20101.22;;;22.32;72.75
7058;BME280;3570;43.080;25.628;2022-08-01T02:18:57;-20109.03;;;22.59;78.95
7058;BME280;3570;43.080;25.628;2022-08-01T02:21:49;-20108.31;;;22.57;78.28
7058;BME280;3570;43.080;25.628;2022-08-01T02:24:43;-20110.47;;;22.64;79.15
7058;BME280;3570;43.080;25.628;2022-08-01T02:27:33;-20109.59;;;22.61;78.85
7058;BME280;3570;43.080;25.628;2022-08-01T02:30:19;-20107.13;;;22.53;79.58
7058;BME280;3570;43.080;25.628;2022-08-01T02:33:40;-20117.69;;;22.89;78.08
7058;BME280;3570;43.080;25.628;2022-08-01T02:36:26;-20119.56;;;22.96;77.47
7058;BME280;3570;43.080;25.628;2022-08-01T02:39:14;-20119.72;;;22.96;77.08
7058;BME280;3570;43.080;25.628;2022-08-01T02:42:04;-20108.72;;;22.58;76.47
7058;BME280;3570;43.080;25.628;2022-08-01T02:44:49;-20100.78;;;22.30;76.38
7058;BME280;3570;43.080;25.628;2022-08-01T02:47:34;-20080.66;;;21.61;78.51
7058;BME280;3570;43.080;25.628;2022-08-01T02:50:20;-20056.75;;;20.78;77.24
7058;BME280;3570;43.080;25.628;2022-08-01T02:53:05;-20048.94;;;20.50;78.30
7058;BME280;3570;43.080;25.628;2022-08-01T02:55:52;-20041.84;;;20.26;78.32
7058;BME280;3570;43.080;25.628;2022-08-01T02:58:39;-20044.72;;;20.36;79.99
7058;BME280;3570;43.080;25.628;2022-08-01T03:01:24;-20042.41;;;20.28;84.54
7058;BME280;3570;43.080;25.628;2022-08-01T03:04:09;-20056.31;;;20.76;80.59
7058;BME280;3570;43.080;25.628;2022-08-01T03:06:54;-20086.31;;;21.80;79.38
7058;BME280;3570;43.080;25.628;2022-08-01T03:09:43;-20086.59;;;21.81;77.21
7058;BME280;3570;43.080;25.628;2022-08-01T03:12:29;-20086.44;;;21.81;78.41
7058;BME280;3570;43.080;25.628;2022-08-01T03:15:17;-20096.44;;;22.15;77.18
7058;BME280;3570;43.080;25.628;2022-08-01T03:18:05;-20102.94;;;22.38;77.18
7058;BME280;3570;43.080;25.628;2022-08-01T03:20:50;-20116.41;;;22.85;75.77
7058;BME280;3570;43.080;25.628;2022-08-01T03:23:36;-20117.84;;;22.90;74.72
7058;BME280;3570;43.080;25.628;2022-08-01T03:26:23;-20123.19;;;23.08;74.61
7058;BME280;3570;43.080;25.628;2022-08-01T03:29:12;-20121.47;;;23.02;74.67
7058;BME280;3570;43.080;25.628;2022-08-01T03:32:00;-20115.09;;;22.80;73.21
7058;BME280;3570;43.080;25.628;2022-08-01T03:34:45;-20116.09;;;22.84;74.60
7058;BME280;3570;43.080;25.628;2022-08-01T03:37:34;-20122.03;;;23.04;72.78
7058;BME280;3570;43.080;25.628;2022-08-01T03:40:24;-20116.69;;;22.86;73.52
7058;BME280;3570;43.080;25.628;2022-08-01T03:43:19;-20107.44;;;22.54;72.37
7058;BME280;3570;43.080;25.628;2022-08-01T03:46:07;-20125.66;;;23.17;72.68
7058;BME280;3570;43.080;25.628;2022-08-01T03:48:55;-20133.75;;;23.45;71.87
7058;BME280;3570;43.080;25.628;2022-08-01T03:51:41;-20135.03;;;23.50;72.01
7058;BME280;3570;43.080;25.628;2022-08-01T03:54:28;-20135.34;;;23.51;70.90
7058;BME280;3570;43.080;25.628;2022-08-01T03:57:14;-20131.44;;;23.37;72.01
7058;BME280;3570;43.080;25.628;2022-08-01T03:59:59;-20136.50;;;23.55;71.67
7058;BME280;3570;43.080;25.628;2022-08-01T04:02:46;-20143.44;;;23.79;71.10
7058;BME280;3570;43.080;25.628;2022-08-01T04:05:30;-20148.78;;;23.97;70.51
7058;BME280;3570;43.080;25.628;2022-08-01T04:08:15;-20149.50;;;24.00;68.64
7058;BME280;3570;43.080;25.628;2022-08-01T04:10:59;-20148.34;;;23.96;69.30
7058;BME280;3570;43.080;25.628;2022-08-01T04:13:43;-20151.81;;;24.08;67.64
7058;BME280;3570;43.080;25.628;2022-08-01T04:16:27;-20154.56;;;24.17;67.79
7058;BME280;3570;43.080;25.628;2022-08-01T04:19:11;-20167.69;;;24.63;67.30
7058;BME280;3570;43.080;25.628;2022-08-01T04:21:55;-20167.69;;;24.63;67.40
7058;BME280;3570;43.080;25.628;2022-08-01T04:24:42;-20169.44;;;24.69;66.09
7058;BME280;3570;43.080;25.628;2022-08-01T04:27:30;-20165.09;;;24.54;65.33
7058;BME280;3570;43.080;25.628;2022-08-01T04:30:19;-20162.50;;;24.45;63.34
7058;BME280;3570;43.080;25.628;2022-08-01T04:33:06;-20172.75;;;24.81;61.14
7058;BME280;3570;43.080;25.628;2022-08-01T04:35:52;-20167.41;;;24.62;63.03
7058;BME280;3570;43.080;25.628;2022-08-01T04:38:36;-20144.28;;;23.82;56.15
7058;BME280;3570;43.080;25.628;2022-08-01T04:41:22;-20131.00;;;23.35;57.76
7058;BME280;3570;43.080;25.628;2022-08-01T04:44:08;-20117.13;;;22.87;59.08
7058;BME280;3570;43.080;25.628;2022-08-01T04:46:53;-20114.81;;;22.79;59.04
7058;BME280;3570;43.080;25.628;2022-08-01T04:49:39;-20114.09;;;22.77;58.56
7058;BME280;3570;43.080;25.628;2022-08-01T04:52:32;-20109.31;;;22.60;58.64
7058;BME280;3570;43.080;25.628;2022-08-01T04:55:17;-20102.50;;;22.36;57.13
7058;BME280;3570;43.080;25.628;2022-08-01T04:58:01;-20111.47;;;22.68;58.25
7058;BME280;3570;43.080;25.628;2022-08-01T05:00:46;-20108.72;;;22.58;57.13
7058;BME280;3570;43.080;25.628;2022-08-01T05:03:30;-20119.88;;;22.97;56.53
7058;BME280;3570;43.080;25.628;2022-08-01T05:06:14;-20121.31;;;23.02;56.61
7058;BME280;3570;43.080;25.628;2022-08-01T05:08:58;-20124.94;;;23.14;55.92
7058;BME280;3570;43.080;25.628;2022-08-01T05:11:42;-20125.94;;;23.18;56.73
7058;BME280;3570;43.080;25.628;2022-08-01T05:14:28;-20130.41;;;23.33;56.41
7058;BME280;3570;43.080;25.628;2022-08-01T05:17:15;-20118.84;;;22.93;56.31
7058;BME280;3570;43.080;25.628;2022-08-01T05:20:00;-20111.47;;;22.68;57.89
7058;BME280;3570;43.080;25.628;2022-08-01T05:22:45;-20109.59;;;22.61;58.67
7058;BME280;3570;43.080;25.628;2022-08-01T05:25:30;-20115.09;;;22.80;58.17
7058;BME280;3570;43.080;25.628;2022-08-01T05:28:14;-20110.31;;;22.64;58.58
7058;BME280;3570;43.080;25.628;2022-08-01T05:30:57;-20111.91;;;22.69;59.98
7058;BME280;3570;43.080;25.628;2022-08-01T05:33:41;-20114.81;;;22.79;58.44
7058;BME280;3570;43.080;25.628;2022-08-01T05:36:25;-20118.84;;;22.93;57.44
7058;BME280;3570;43.080;25.628;2022-08-01T05:39:10;-20119.16;;;22.94;59.00
7058;BME280;3570;43.080;25.628;2022-08-01T05:41:54;-20120.59;;;22.99;57.48
7058;BME280;3570;43.080;25.628;2022-08-01T05:44:38;-20122.03;;;23.04;57.29
7058;BME280;3570;43.080;25.628;2022-08-01T05:47:22;-20126.81;;;23.21;55.14
7058;BME280;3570;43.080;25.628;2022-08-01T05:50:06;-20129.56;;;23.30;52.16
7058;BME280;3570;43.080;25.628;2022-08-01T05:52:50;-20134.63;;;23.48;51.17
7058;BME280;3570;43.080;25.628;2022-08-01T05:55:35;-20136.06;;;23.53;51.04
7058;BME280;3570;43.080;25.628;2022-08-01T05:58:19;-20142.84;;;23.77;50.10
7058;BME280;3570;43.080;25.628;2022-08-01T06:01:03;-20143.56;;;23.79;49.79
7058;BME280;3570;43.080;25.628;2022-08-01T06:03:47;-20135.34;;;23.51;50.39
7058;BME280;3570;43.080;25.628;2022-08-01T06:06:30;-20141.84;;;23.73;50.29
7058;BME280;3570;43.080;25.628;2022-08-01T06:09:14;-20133.88;;;23.46;50.34
7058;BME280;3570;43.080;25.628;2022-08-01T06:11:58;-20145.16;;;23.85;49.86
7058;BME280;3570;43.080;25.628;2022-08-01T06:14:42;-20148.34;;;23.96;50.30
7058;BME280;3570;43.080;25.628;2022-08-01T06:17:26;-20147.03;;;23.91;48.73
7058;BME280;3570;43.080;25.628;2022-08-01T06:20:10;-20147.19;;;23.92;49.53
7058;BME280;3570;43.080;25.628;2022-08-01T06:22:55;-20149.63;;;24.00;49.13
7058;BME280;3570;43.080;25.628;2022-08-01T06:25:39;-20154.13;;;24.16;49.40
7058;BME280;3570;43.080;25.628;2022-08-01T06:28:23;-20157.00;;;24.26;49.14
7058;BME280;3570;43.080;25.628;2022-08-01T06:31:07;-20164.81;;;24.53;49.06
7058;BME280;3570;43.080;25.628;2022-08-01T06:33:53;-20161.34;;;24.41;48.30
7058;BME280;3570;43.080;25.628;2022-08-01T06:36:37;-20160.47;;;24.38;48.78
7058;BME280;3570;43.080;25.628;2022-08-01T06:39:21;-20154.69;;;24.18;48.79
7058;BME280;3570;43.080;25.628;2022-08-01T06:42:05;-20153.81;;;24.15;49.32
7058;BME280;3570;43.080;25.628;2022-08-01T06:44:49;-20148.91;;;23.98;48.41
7058;BME280;3570;43.080;25.628;2022-08-01T06:47:33;-20160.19;;;24.37;49.02
7058;BME280;3570;43.080;25.628;2022-08-01T06:50:18;-20165.09;;;24.54;47.84
7058;BME280;3570;43.080;25.628;2022-08-01T06:53:02;-20161.91;;;24.43;47.93
7058;BME280;3570;43.080;25.628;2022-08-01T06:55:46;-20158.16;;;24.30;49.11
7058;BME280;3570;43.080;25.628;2022-08-01T06:58:31;-20158.75;;;24.32;49.46
7058;BME280;3570;43.080;25.628;2022-08-01T07:01:15;-20166.69;;;24.60;49.24
7058;BME280;3570;43.080;25.628;2022-08-01T07:03:59;-20161.78;;;24.43;48.81
7058;BME280;3570;43.080;25.628;2022-08-01T07:06:43;-20159.91;;;24.36;49.87
7058;BME280;3570;43.080;25.628;2022-08-01T07:09:27;-20169.13;;;24.68;49.01
7058;BME280;3570;43.080;25.628;2022-08-01T07:12:11;-20165.53;;;24.56;48.96
7058;BME280;3570;43.080;25.628;2022-08-01T07:14:55;-20177.22;;;24.96;48.31
7058;BME280;3570;43.080;25.628;2022-08-01T07:17:41;-20167.25;;;24.62;47.40
7058;BME280;3570;43.080;25.628;2022-08-01T07:20:25;-20167.41;;;24.62;48.15
7058;BME280;3570;43.080;25.628;2022-08-01T07:23:09;-20162.22;;;24.44;48.25
7058;BME280;3570;43.080;25.628;2022-08-01T07:25:53;-20167.25;;;24.62;48.44
7058;BME280;3570;43.080;25.628;2022-08-01T07:28:37;-20174.47;;;24.87;48.33
7058;BME280;3570;43.080;25.628;2022-08-01T07:31:21;-20168.84;;;24.67;48.87
7058;BME280;3570;43.080;25.628;2022-08-01T07:34:06;-20171.44;;;24.76;49.23
7058;BME280;3570;43.080;25.628;2022-08-01T07:36:52;-20178.38;;;25.00;48.23
7058;BME280;3570;43.080;25.628;2022-08-01T07:39:36;-20175.50;;;24.90;47.90
7058;BME280;3570;43.080;25.628;2022-08-01T07:42:20;-20184.16;;;25.21;48.57
7058;BME280;3570;43.080;25.628;2022-08-01T07:45:04;-20183.72;;;25.19;47.41
7058;BME280;3570;43.080;25.628;2022-08-01T07:47:48;-20189.63;;;25.40;47.33
7058;BME280;3570;43.080;25.628;2022-08-01T07:50:34;-20176.94;;;24.95;47.53
7058;BME280;3570;43.080;25.628;2022-08-01T07:53:18;-20176.94;;;24.95;47.54
7058;BME280;3570;43.080;25.628;2022-08-01T07:56:03;-20184.56;;;25.22;47.92
7058;BME280;3570;43.080;25.628;2022-08-01T07:58:50;-20192.94;;;25.51;46.51
7058;BME280;3570;43.080;25.628;2022-08-01T08:01:34;-20188.91;;;25.37;46.48
7058;BME280;3570;43.080;25.628;2022-08-01T08:04:18;-20186.88;;;25.30;46.86
7058;BME280;3570;43.080;25.628;2022-08-01T08:07:02;-20190.22;;;25.42;46.37
7058;BME280;3570;43.080;25.628;2022-08-01T08:09:46;-20194.53;;;25.57;46.76
7058;BME280;3570;43.080;25.628;2022-08-01T08:12:30;-20191.34;;;25.46;47.42
7058;BME280;3570;43.080;25.628;2022-08-01T08:15:15;-20189.50;;;25.39;46.88
7058;BME280;3570;43.080;25.628;2022-08-01T08:17:59;-20184.16;;;25.21;47.52
7058;BME280;3570;43.080;25.628;2022-08-01T08:20:43;-20191.22;;;25.45;46.96
7058;BME280;3570;43.080;25.628;2022-08-01T08:23:27;-20185.88;;;25.27;47.59
7058;BME280;3570;43.080;25.628;2022-08-01T08:26:33;-20203.19;;;25.87;46.25
7058;BME280;3570;43.080;25.628;2022-08-01T08:29:17;-20201.75;;;25.82;46.14
7058;BME280;3570;43.080;25.628;2022-08-01T08:32:02;-20197.84;;;25.68;46.30
7058;BME280;3570;43.080;25.628;2022-08-01T08:34:46;-20210.84;;;26.14;45.87
7058;BME280;3570;43.080;25.628;2022-08-01T08:37:31;-20206.22;;;25.97;46.06
7058;BME280;3570;43.080;25.628;2022-08-01T08:40:16;-20205.94;;;25.96;45.53
7058;BME280;3570;43.080;25.628;2022-08-01T08:43:00;-20209.97;;;26.11;46.18
7058;BME280;3570;43.080;25.628;2022-08-01T08:45:46;-20206.94;;;26.00;46.74
7058;BME280;3570;43.080;25.628;2022-08-01T08:48:30;-20199.88;;;25.75;47.58
7058;BME280;3570;43.080;25.628;2022-08-01T08:51:17;-20199.44;;;25.74;47.03
7058;BME280;3570;43.080;25.628;2022-08-01T08:54:05;-20213.84;;;26.24;46.41
7058;BME280;3570;43.080;25.628;2022-08-01T08:56:51;-20217.59;;;26.37;45.76
7058;BME280;3570;43.080;25.628;2022-08-01T08:59:37;-20212.13;;;26.18;44.88
7058;BME280;3570;43.080;25.628;2022-08-01T09:02:22;-20239.22;;;27.13;44.29
7058;BME280;3570;43.080;25.628;2022-08-01T09:05:07;-20226.41;;;26.68;44.73
7058;BME280;3570;43.080;25.628;2022-08-01T09:07:52;-20234.91;;;26.97;44.63
7058;BME280;3570;43.080;25.628;2022-08-01T09:10:36;-20236.91;;;27.05;44.57
7058;BME280;3570;43.080;25.628;2022-08-01T09:13:20;-20213.56;;;26.23;45.18
7058;BME280;3570;43.080;25.628;2022-08-01T09:16:04;-20207.81;;;26.03;45.94
7058;BME280;3570;43.080;25.628;2022-08-01T09:18:48;-20221.34;;;26.50;45.19
7058;BME280;3570;43.080;25.628;2022-08-01T09:21:33;-20234.59;;;26.96;45.09
7058;BME280;3570;43.080;25.628;2022-08-01T09:24:18;-20240.66;;;27.18;43.89
7058;BME280;3570;43.080;25.628;2022-08-01T09:27:23;-20254.78;;;27.67;42.92
7058;BME280;3570;43.080;25.628;2022-08-01T09:30:17;-20257.06;;;27.75;42.24
7058;BME280;3570;43.080;25.628;2022-08-01T09:33:03;-20248.56;;;27.45;42.70
7058;BME280;3570;43.080;25.628;2022-08-01T09:35:55;-20269.16;;;28.17;41.52
7058;BME280;3570;43.080;25.628;2022-08-01T09:38:40;-20284.25;;;28.70;40.35
7058;BME280;3570;43.080;25.628;2022-08-01T09:41:30;-20308.13;;;29.53;38.75
7058;BME280;3570;43.080;25.628;2022-08-01T09:44:17;-20329.38;;;30.28;37.15
7058;BME280;3570;43.080;25.628;2022-08-01T09:47:01;-20306.25;;;29.47;38.42
7058;BME280;3570;43.080;25.628;2022-08-01T09:49:54;-20290.28;;;28.91;39.27
7058;BME280;3570;43.080;25.628;2022-08-01T09:52:39;-20287.28;;;28.80;40.54
7058;BME280;3570;43.080;25.628;2022-08-01T09:55:23;-20293.88;;;29.04;39.38
7058;BME280;3570;43.080;25.628;2022-08-01T09:58:08;-20323.19;;;30.06;39.30
7058;BME280;3570;43.080;25.628;2022-08-01T10:00:58;-20321.03;;;29.99;37.96
7058;BME280;3570;43.080;25.628;2022-08-01T10:03:44;-20318.16;;;29.89;37.75
7058;BME280;3570;43.080;25.628;2022-08-01T10:06:28;-20332.38;;;30.38;36.61
7058;BME280;3570;43.080;25.628;2022-08-01T10:09:13;-20322.19;;;30.03;37.35
7058;BME280;3570;43.080;25.628;2022-08-01T10:11:59;-20330.94;;;30.33;36.75
7058;BME280;3570;43.080;25.628;2022-08-01T10:14:46;-20299.94;;;29.25;38.05
7058;BME280;3570;43.080;25.628;2022-08-01T10:17:32;-20305.09;;;29.43;37.72
7058;BME280;3570;43.080;25.628;2022-08-01T10:20:20;-20353.03;;;31.11;35.49
7058;BME280;3570;43.080;25.628;2022-08-01T10:23:05;-20333.53;;;30.42;35.82
7058;BME280;3570;43.080;25.628;2022-08-01T10:25:50;-20364.81;;;31.52;34.37
7058;BME280;3570;43.080;25.628;2022-08-01T10:28:38;-20387.44;;;32.31;33.70
7058;BME280;3570;43.080;25.628;2022-08-01T10:31:22;-20345.31;;;30.84;35.05
7058;BME280;3570;43.080;25.628;2022-08-01T10:34:06;-20347.31;;;30.91;35.47
7058;BME280;3570;43.080;25.628;2022-08-01T10:36:50;-20362.81;;;31.45;34.17
7058;BME280;3570;43.080;25.628;2022-08-01T10:39:34;-20349.75;;;30.99;34.47
7058;BME280;3570;43.080;25.628;2022-08-01T10:42:19;-20331.25;;;30.34;35.09
7058;BME280;3570;43.080;25.628;2022-08-01T10:45:04;-20335.13;;;30.48;35.00
7058;BME280;3570;43.080;25.628;2022-08-01T10:47:56;-20344.72;;;30.82;34.86
7058;BME280;3570;43.080;25.628;2022-08-01T10:50:54;-20367.69;;;31.62;33.99
7058;BME280;3570;43.080;25.628;2022-08-01T10:53:53;-20401.19;;;32.80;32.91
7058;BME280;3570;43.080;25.628;2022-08-01T10:56:59;-20347.88;;;30.93;35.04
7058;BME280;3570;43.080;25.628;2022-08-01T10:59:50;-20367.38;;;31.61;34.74
7058;BME280;3570;43.080;25.628;2022-08-01T11:02:34;-20343.88;;;30.79;35.88
7058;BME280;3570;43.080;25.628;2022-08-01T11:05:24;-20329.81;;;30.29;36.33
7058;BME280;3570;43.080;25.628;2022-08-01T11:08:10;-20318.88;;;29.91;37.75
7058;BME280;3570;43.080;25.628;2022-08-01T11:11:05;-20331.25;;;30.34;36.26
7058;BME280;3570;43.080;25.628;2022-08-01T11:16:44;-20373.97;;;31.84;33.93
7058;BME280;3570;43.080;25.628;2022-08-01T11:20:54;-20383.72;;;32.18;34.19
7058;BME280;3570;43.080;25.628;2022-08-01T11:28:38;-20381.44;;;32.10;33.20
7058;BME280;3570;43.080;25.628;2022-08-01T11:34:07;-20354.91;;;31.17;34.82
7058;BME280;3570;43.080;25.628;2022-08-01T11:37:26;-20404.06;;;32.90;32.52
7058;BME280;3570;43.080;25.628;2022-08-01T11:40:28;-20429.53;;;33.79;31.54
7058;BME280;3570;43.080;25.628;2022-08-01T11:45:57;-20420.94;;;33.49;31.30
7058;BME280;3570;43.080;25.628;2022-08-01T11:48:41;-20418.94;;;33.42;31.23
7058;BME280;3570;43.080;25.628;2022-08-01T11:51:26;-20366.09;;;31.57;33.35
7058;BME280;3570;43.080;25.628;2022-08-01T11:54:10;-20362.81;;;31.45;34.15
7058;BME280;3570;43.080;25.628;2022-08-01T11:56:59;-20382.00;;;32.12;32.36
7058;BME280;3570;43.080;25.628;2022-08-01T11:59:46;-20404.63;;;32.92;32.19
7058;BME280;3570;43.080;25.628;2022-08-01T12:02:33;-20438.53;;;34.11;30.40
7058;BME280;3570;43.080;25.628;2022-08-01T12:05:17;-20386.00;;;32.26;32.36
7058;BME280;3570;43.080;25.628;2022-08-01T12:08:04;-20387.44;;;32.31;33.07
7058;BME280;3570;43.080;25.628;2022-08-01T12:10:49;-20398.91;;;32.72;31.71
7058;BME280;3570;43.080;25.628;2022-08-01T12:13:43;-20410.94;;;33.14;32.31
7058;BME280;3570;43.080;25.628;2022-08-01T12:16:28;-20420.81;;;33.49;31.87
7058;BME280;3570;43.080;25.628;2022-08-01T12:19:21;-20416.22;;;33.33;31.98
7058;BME280;3570;43.080;25.628;2022-08-01T12:24:51;-20416.06;;;33.32;32.47
7058;BME280;3570;43.080;25.628;2022-08-01T12:27:37;-20412.22;;;33.18;32.56
7058;BME280;3570;43.080;25.628;2022-08-01T12:30:22;-20403.47;;;32.88;33.91
7058;BME280;3570;43.080;25.628;2022-08-01T12:33:08;-20378.44;;;32.00;35.08
7058;BME280;3570;43.080;25.628;2022-08-01T12:35:53;-20401.34;;;32.80;34.26
7058;BME280;3570;43.080;25.628;2022-08-01T12:38:37;-20414.06;;;33.25;33.05
7058;BME280;3570;43.080;25.628;2022-08-01T12:41:22;-20440.38;;;34.17;33.32
7058;BME280;3570;43.080;25.628;2022-08-01T12:44:13;-20447.25;;;34.42;30.80
7058;BME280;3570;43.080;25.628;2022-08-01T12:47:00;-20410.94;;;33.14;32.85
7058;BME280;3570;43.080;25.628;2022-08-01T12:49:44;-20416.06;;;33.32;32.79
7058;BME280;3570;43.080;25.628;2022-08-01T12:52:31;-20434.66;;;33.97;32.27
7058;BME280;3570;43.080;25.628;2022-08-01T12:55:17;-20477.81;;;35.49;30.67
7058;BME280;3570;43.080;25.628;2022-08-01T12:58:13;-20447.53;;;34.43;31.88
7058;BME280;3570;43.080;25.628;2022-08-01T13:01:06;-20458.97;;;34.83;31.13
7058;BME280;3570;43.080;25.628;2022-08-01T13:04:02;-20467.09;;;35.12;30.94
7058;BME280;3570;43.080;25.628;2022-08-01T13:06:53;-20478.94;;;35.53;30.73
7058;BME280;3570;43.080;25.628;2022-08-01T13:09:49;-20421.66;;;33.52;32.50
7058;BME280;3570;43.080;25.628;2022-08-01T13:12:34;-20408.91;;;33.07;33.85
7058;BME280;3570;43.080;25.628;2022-08-01T13:15:30;-20430.09;;;33.81;32.67
7058;BME280;3570;43.080;25.628;2022-08-01T13:18:32;-20387.44;;;32.31;34.90
7058;BME280;3570;43.080;25.628;2022-08-01T13:21:24;-20372.25;;;31.78;36.28
7058;BME280;3570;43.080;25.628;2022-08-01T13:24:11;-20403.47;;;32.88;34.82
7058;BME280;3570;43.080;25.628;2022-08-01T13:27:01;-20482.22;;;35.65;30.38
7058;BME280;3570;43.080;25.628;2022-08-01T13:29:47;-20407.22;;;33.01;32.95
7058;BME280;3570;43.080;25.628;2022-08-01T13:32:33;-20400.34;;;32.77;33.64
7058;BME280;3570;43.080;25.628;2022-08-01T13:35:20;-20420.09;;;33.46;32.59
7058;BME280;3570;43.080;25.628;2022-08-01T13:38:04;-20377.41;;;31.96;34.85
7058;BME280;3570;43.080;25.628;2022-08-01T13:40:48;-20349.03;;;30.97;37.17
7058;BME280;3570;43.080;25.628;2022-08-01T13:43:32;-20349.19;;;30.97;37.08
7058;BME280;3570;43.080;25.628;2022-08-01T13:46:17;-20328.66;;;30.25;38.27
7058;BME280;3570;43.080;25.628;2022-08-01T13:49:02;-20338.56;;;30.60;37.96
7058;BME280;3570;43.080;25.628;2022-08-01T13:51:46;-20354.06;;;31.14;36.92
7058;BME280;3570;43.080;25.628;2022-08-01T13:54:30;-20432.94;;;33.91;33.50
7058;BME280;3570;43.080;25.628;2022-08-01T13:57:15;-20513.31;;;36.74;30.10
7058;BME280;3570;43.080;25.628;2022-08-01T14:00:00;-20529.41;;;37.31;28.75
7058;BME280;3570;43.080;25.628;2022-08-01T14:02:44;-20498.06;;;36.21;30.21
7058;BME280;3570;43.080;25.628;2022-08-01T14:05:28;-20491.22;;;35.97;30.78
7058;BME280;3570;43.080;25.628;2022-08-01T14:08:13;-20458.25;;;34.80;31.22
7058;BME280;3570;43.080;25.628;2022-08-01T14:10:57;-20441.53;;;34.22;32.54
7058;BME280;3570;43.080;25.628;2022-08-01T14:13:42;-20409.50;;;33.09;34.35
7058;BME280;3570;43.080;25.628;2022-08-01T14:16:27;-20386.00;;;32.26;35.68
7058;BME280;3570;43.080;25.628;2022-08-01T14:19:11;-20384.00;;;32.19;35.77
7058;BME280;3570;43.080;25.628;2022-08-01T14:21:56;-20372.25;;;31.78;37.44
7058;BME280;3570;43.080;25.628;2022-08-01T14:24:40;-20390.88;;;32.44;36.27
7058;BME280;3570;43.080;25.628;2022-08-01T14:27:24;-20393.59;;;32.53;35.96
7058;BME280;3570;43.080;25.628;2022-08-01T14:30:09;-20395.47;;;32.60;35.57
7058;BME280;3570;43.080;25.628;2022-08-01T14:32:53;-20382.88;;;32.15;36.24
7058;BME280;3570;43.080;25.628;2022-08-01T14:35:38;-20373.13;;;31.81;35.94
7058;BME280;3570;43.080;25.628;2022-08-01T14:38:22;-20400.47;;;32.77;34.03
7058;BME280;3570;43.080;25.628;2022-08-01T14:41:06;-20459.53;;;34.85;32.54
7058;BME280;3570;43.080;25.628;2022-08-01T14:43:50;-20472.09;;;35.29;31.09
7058;BME280;3570;43.080;25.628;2022-08-01T14:46:34;-20539.66;;;37.67;28.38
7058;BME280;3570;43.080;25.628;2022-08-01T14:49:18;-20482.66;;;35.66;30.10
7058;BME280;3570;43.080;25.628;2022-08-01T14:52:03;-20470.66;;;35.24;30.18
7058;BME280;3570;43.080;25.628;2022-08-01T14:54:47;-20479.25;;;35.54;29.55
7058;BME280;3570;43.080;25.628;2022-08-01T14:57:31;-20475.09;;;35.40;30.91
7058;BME280;3570;43.080;25.628;2022-08-01T15:00:16;-20448.97;;;34.48;32.37
7058;BME280;3570;43.080;25.628;2022-08-01T15:03:01;-20453.09;;;34.62;32.49